Daytona Beach International Airport (DAB/KDAB)



Flight Aircraft Arriving
CPX3267 SF34
KMIA - Miami International Airport
United StatesFlorida Miami, Florida
Flight Aircraft Departing
CPX3268 SF34
KMIA - Miami International Airport
United StatesFlorida Miami, Florida


Airport Information
Location: Daytona Beach, Florida
Coordinates: 29.1799 / -81.0581
Field Elevation: 34ft
Longest Runway: 10,499ft
ILS Approaches: YES
Landing Fees: $668 per flight
Jet A Price: $0.26/lbs
Charts:

Current Weather
METAR: KDAB 020453Z 19011KT 7SM -RA SCT039 BKN090 BKN120 24/22 A3001 RMK AO2 RAE08B27 SLP161 P0002 T02390217 403390239
TAF: KDAB 020455Z 0205/0224 22006KT P6SM VCSH FEW035 SCT070 BKN100 TEMPO 0205/0207 6SM -SHRA SCT035 BKN070 FM020700 23005KT P6SM SCT080 BKN250 FM021400 23009KT P6SM VCSH SCT035 SCT250 FM021800 21008KT P6SM VCTS SCT050CB SCT120 BKN250

Recent Arrivals
Date Flight Type Depart
03/28/2021 CPX3268 SF34 Miami International Airport (KMIA)
08/29/2020 CPX3268 SF34 Miami International Airport (KMIA)
01/03/2020 CPX3268 SF34 Miami International Airport (KMIA)
11/04/2019 CPX668 SF34 Miami International Airport (KMIA)
Recent Departures
Date Flight Type Arrive
03/28/2021 CPX3267 SF34 Miami International Airport (KMIA)
08/30/2020 CPX3267 SF34 Miami International Airport (KMIA)
01/04/2020 CPX3267 SF34 Miami International Airport (KMIA)
11/05/2019 CPX667 SF34 Miami International Airport (KMIA)